Suula — OJKZ — position and weather

sailwx.info

Track history (hours):
 
Tides and Currents Weather Stations Pressure Air Temp Water Temp Dewpoint Dewpoint Depression Visibility Wind Speed Wind Dir Waves Ship Positions

Suula

Last reported at 2017-May-28 09:01 UTC. Time now 2017-May-30 12:44 UTC.
Position N 60°25' E 019°02'.

Length 140 m; draft 6.5 m.

Type: Tanker. MMSI: 230956996.

Date/timePositionNaut miles runAvg speedWind from/ knotsBaromVisibWave heightAir tempDewpointWater temp
2017-May-28 09:01N 60°25' E 019°02'312.3
2017-May-28 08:47N 60°22' E 019°02'312.3
2017-May-28 08:30N 60°18' E 019°01'612.3
2017-May-28 08:00N 60°12' E 019°05'612.1
2017-May-28 07:30N 60°08' E 019°13'612.3
2017-May-28 07:00N 60°03' E 019°20'612.2
2017-May-28 06:30N 59°58' E 019°28'612.3
2017-May-28 06:00N 59°53' E 019°36'612.1
2017-May-28 05:30N 59°49' E 019°43'611.9
2017-May-28 04:59N 59°44' E 019°52'4411.5
2017-May-28 01:10N 59°33' E 021°16'212.3
2017-May-28 01:00N 59°32' E 021°20'1212.4
2017-May-28 00:01N 59°30' E 021°43'012.4
2017-May-27 23:59N 59°30' E 021°44'4112.2
2017-May-27 20:40N 59°37' E 023°03'212.2
2017-May-27 20:30N 59°38' E 023°07'612.3
2017-May-27 20:00N 59°39' E 023°19'612.2
2017-May-27 19:30N 59°41' E 023°31'612.4
2017-May-27 19:00N 59°42' E 023°42'612.5
2017-May-27 18:30N 59°44' E 023°54'612.6
2017-May-27 18:00N 59°45' E 024°07'812.8
2017-May-27 17:22N 59°47' E 024°22'512.7
2017-May-27 17:00N 59°48' E 024°31'712.7
2017-May-27 16:29N 59°50' E 024°44'2512.3
2017-May-27 14:26N 59°60' E 025°31'1112.1
2017-May-27 13:30N 60°10' E 025°39'2 0.1
2017-May-26 23:40N 60°10' E 025°36'13011.8
2017-May-26 12:38N 59°30' E 021°30'613.1
2017-May-26 12:11N 59°32' E 021°19'4812.5
2017-May-26 08:21N 59°44' E 019°47'413.0
2017-May-26 08:00N 59°47' E 019°40'713.3
2017-May-26 07:30N 59°52' E 019°32'713.3
2017-May-26 07:00N 59°57' E 019°24'713.3
2017-May-26 06:30N 60°02' E 019°15'714.3
2017-May-26 06:00N 60°08' E 019°06'612.6
2017-May-26 05:30N 60°14' E 019°01'713.1
2017-May-26 05:00N 60°20' E 018°60'  
2017-May-22 13:26N 60°22' E 019°02'513.0
2017-May-22 13:01N 60°16' E 019°02'612.7
2017-May-22 12:30N 60°10' E 019°08'713.0
2017-May-22 12:00N 60°05' E 019°16'713.1
2017-May-22 11:30N 60°00' E 019°25'613.0
2017-May-22 11:01N 59°55' E 019°33'712.9
2017-May-22 10:28N 59°50' E 019°42'612.9
2017-May-22 09:58N 59°45' E 019°50'4412.2
2017-May-22 06:19N 59°32' E 021°14'5 9.5
2017-May-22 05:45N 59°31' E 021°24'312.6
2017-May-22 05:29N 59°30' E 021°31'613.0
2017-May-22 05:00N 59°30' E 021°43'613.2
2017-May-22 04:31N 59°31' E 021°56'2213.1
2017-May-22 02:49N 59°35' E 022°39'513.4
2017-May-22 02:27N 59°36' E 022°49'613.6
2017-May-22 02:00N 59°37' E 023°01'713.6
2017-May-22 01:30N 59°38' E 023°14'713.4
2017-May-22 01:00N 59°40' E 023°27'713.3
2017-May-22 00:30N 59°42' E 023°39'713.4
2017-May-22 00:00N 59°43' E 023°52'6012.1
2017-May-21 19:03N 60°10' E 025°39'9 0.6
2017-May-21 02:11N 60°19' E 025°33'58 4.5
2017-May-20 13:28N 59°41' E 024°06'613.8
2017-May-20 13:00N 59°39' E 023°54'713.9
2017-May-20 12:29N 59°37' E 023°41'713.8
2017-May-20 12:00N 59°35' E 023°28'1013.8
2017-May-20 11:16N 59°32' E 023°09'513.9
2017-May-20 10:56N 59°30' E 023°00'4613.1
2017-May-20 07:28N 59°30' E 021°31'613.9
2017-May-20 07:00N 59°32' E 021°19'1113.7
2017-May-20 06:11N 59°35' E 020°57'3812.9
2017-May-20 03:14N 59°45' E 019°45'313.7
2017-May-20 03:00N 59°48' E 019°40'713.9
2017-May-20 02:30N 59°53' E 019°31'813.9
2017-May-20 01:54N 59°59' E 019°21'613.9
2017-May-20 01:30N 60°03' E 019°14'714.1
2017-May-20 01:00N 60°09' E 019°05'713.8
2017-May-20 00:30N 60°16' E 019°01'714.1
2017-May-20 00:00N 60°23' E 018°60'814.2
2017-May-19 23:28N 60°30' E 018°59'714.3
2017-May-19 23:00N 60°37' E 019°01'  
Track history (hours):
 
Tides and Currents Weather Stations Pressure Air Temp Water Temp Dewpoint Dewpoint Depression Visibility Wind Speed Wind Dir Waves Ship Positions

Suula

Last reported at 2017-May-28 09:01 UTC. Time now 2017-May-30 12:44 UTC.
Position N 60°25' E 019°02'.

Length 140 m; draft 6.5 m.

Type: Tanker. MMSI: 230956996.

Date/timePositionNaut miles runAvg speedWind from/ knotsBaromVisibWave heightAir tempDewpointWater temp
2017-May-28 09:01N 60°25' E 019°02'312.3
2017-May-28 08:47N 60°22' E 019°02'312.3
2017-May-28 08:30N 60°18' E 019°01'612.3
2017-May-28 08:00N 60°12' E 019°05'612.1
2017-May-28 07:30N 60°08' E 019°13'612.3
2017-May-28 07:00N 60°03' E 019°20'612.2
2017-May-28 06:30N 59°58' E 019°28'612.3
2017-May-28 06:00N 59°53' E 019°36'612.1
2017-May-28 05:30N 59°49' E 019°43'611.9
2017-May-28 04:59N 59°44' E 019°52'4411.5
2017-May-28 01:10N 59°33' E 021°16'212.3
2017-May-28 01:00N 59°32' E 021°20'1212.4
2017-May-28 00:01N 59°30' E 021°43'012.4
2017-May-27 23:59N 59°30' E 021°44'4112.2
2017-May-27 20:40N 59°37' E 023°03'212.2
2017-May-27 20:30N 59°38' E 023°07'612.3
2017-May-27 20:00N 59°39' E 023°19'612.2
2017-May-27 19:30N 59°41' E 023°31'612.4
2017-May-27 19:00N 59°42' E 023°42'612.5
2017-May-27 18:30N 59°44' E 023°54'612.6
2017-May-27 18:00N 59°45' E 024°07'812.8
2017-May-27 17:22N 59°47' E 024°22'512.7
2017-May-27 17:00N 59°48' E 024°31'712.7
2017-May-27 16:29N 59°50' E 024°44'2512.3
2017-May-27 14:26N 59°60' E 025°31'1112.1
2017-May-27 13:30N 60°10' E 025°39'2 0.1
2017-May-26 23:40N 60°10' E 025°36'13011.8
2017-May-26 12:38N 59°30' E 021°30'613.1
2017-May-26 12:11N 59°32' E 021°19'4812.5
2017-May-26 08:21N 59°44' E 019°47'413.0
2017-May-26 08:00N 59°47' E 019°40'713.3
2017-May-26 07:30N 59°52' E 019°32'713.3
2017-May-26 07:00N 59°57' E 019°24'713.3
2017-May-26 06:30N 60°02' E 019°15'714.3
2017-May-26 06:00N 60°08' E 019°06'612.6
2017-May-26 05:30N 60°14' E 019°01'713.1
2017-May-26 05:00N 60°20' E 018°60'  
2017-May-22 13:26N 60°22' E 019°02'513.0
2017-May-22 13:01N 60°16' E 019°02'612.7
2017-May-22 12:30N 60°10' E 019°08'713.0
2017-May-22 12:00N 60°05' E 019°16'713.1
2017-May-22 11:30N 60°00' E 019°25'613.0
2017-May-22 11:01N 59°55' E 019°33'712.9
2017-May-22 10:28N 59°50' E 019°42'612.9
2017-May-22 09:58N 59°45' E 019°50'4412.2
2017-May-22 06:19N 59°32' E 021°14'5 9.5
2017-May-22 05:45N 59°31' E 021°24'312.6
2017-May-22 05:29N 59°30' E 021°31'613.0
2017-May-22 05:00N 59°30' E 021°43'613.2
2017-May-22 04:31N 59°31' E 021°56'2213.1
2017-May-22 02:49N 59°35' E 022°39'513.4
2017-May-22 02:27N 59°36' E 022°49'613.6
2017-May-22 02:00N 59°37' E 023°01'713.6
2017-May-22 01:30N 59°38' E 023°14'713.4
2017-May-22 01:00N 59°40' E 023°27'713.3
2017-May-22 00:30N 59°42' E 023°39'713.4
2017-May-22 00:00N 59°43' E 023°52'6012.1
2017-May-21 19:03N 60°10' E 025°39'9 0.6
2017-May-21 02:11N 60°19' E 025°33'58 4.5
2017-May-20 13:28N 59°41' E 024°06'613.8
2017-May-20 13:00N 59°39' E 023°54'713.9
2017-May-20 12:29N 59°37' E 023°41'713.8
2017-May-20 12:00N 59°35' E 023°28'1013.8
2017-May-20 11:16N 59°32' E 023°09'513.9
2017-May-20 10:56N 59°30' E 023°00'4613.1
2017-May-20 07:28N 59°30' E 021°31'613.9
2017-May-20 07:00N 59°32' E 021°19'1113.7
2017-May-20 06:11N 59°35' E 020°57'3812.9
2017-May-20 03:14N 59°45' E 019°45'313.7
2017-May-20 03:00N 59°48' E 019°40'713.9
2017-May-20 02:30N 59°53' E 019°31'813.9
2017-May-20 01:54N 59°59' E 019°21'613.9
2017-May-20 01:30N 60°03' E 019°14'714.1
2017-May-20 01:00N 60°09' E 019°05'713.8
2017-May-20 00:30N 60°16' E 019°01'714.1
2017-May-20 00:00N 60°23' E 018°60'814.2
2017-May-19 23:28N 60°30' E 018°59'714.3
2017-May-19 23:00N 60°37' E 019°01'  

Dump ship's entire track history